sensor_id;sensor_type;location;lat;lon;timestamp;P1;durP1;ratioP1;P2;durP2;ratioP2
48524;SDS011;34316;51.514;-0.178;2023-05-07T00:00:46;18.05;;;12.15;;
48524;SDS011;34316;51.514;-0.178;2023-05-07T00:02:48;13.50;;;11.05;;
48524;SDS011;34316;51.514;-0.178;2023-05-07T00:04:49;15.90;;;11.55;;
48524;SDS011;34316;51.514;-0.178;2023-05-07T00:06:51;13.88;;;10.45;;
48524;SDS011;34316;51.514;-0.178;2023-05-07T00:08:53;15.13;;;9.95;;
48524;SDS011;34316;51.514;-0.178;2023-05-07T00:10:54;12.05;;;9.63;;
48524;SDS011;34316;51.514;-0.178;2023-05-07T00:12:56;10.95;;;9.68;;
48524;SDS011;34316;51.514;-0.178;2023-05-07T00:14:58;12.80;;;10.20;;
48524;SDS011;34316;51.514;-0.178;2023-05-07T00:16:59;13.82;;;9.85;;
48524;SDS011;34316;51.514;-0.178;2023-05-07T00:19:01;13.23;;;9.68;;
48524;SDS011;34316;51.514;-0.178;2023-05-07T00:21:03;11.93;;;8.93;;
48524;SDS011;34316;51.514;-0.178;2023-05-07T00:23:04;10.95;;;9.10;;
48524;SDS011;34316;51.514;-0.178;2023-05-07T00:25:06;12.27;;;9.82;;
48524;SDS011;34316;51.514;-0.178;2023-05-07T00:27:08;13.15;;;9.98;;
48524;SDS011;34316;51.514;-0.178;2023-05-07T00:29:10;12.10;;;9.35;;
48524;SDS011;34316;51.514;-0.178;2023-05-07T00:31:11;10.93;;;8.93;;
48524;SDS011;34316;51.514;-0.178;2023-05-07T00:33:13;12.50;;;9.10;;
48524;SDS011;34316;51.514;-0.178;2023-05-07T00:35:15;13.57;;;9.10;;
48524;SDS011;34316;51.514;-0.178;2023-05-07T00:37:16;12.05;;;9.45;;
48524;SDS011;34316;51.514;-0.178;2023-05-07T00:39:18;12.02;;;9.18;;
48524;SDS011;34316;51.514;-0.178;2023-05-07T00:41:20;12.98;;;8.85;;
48524;SDS011;34316;51.514;-0.178;2023-05-07T00:43:21;12.18;;;9.88;;
48524;SDS011;34316;51.514;-0.178;2023-05-07T00:45:26;12.48;;;9.48;;
48524;SDS011;34316;51.514;-0.178;2023-05-07T00:47:28;10.90;;;9.57;;
48524;SDS011;34316;51.514;-0.178;2023-05-07T00:49:35;13.52;;;9.98;;
48524;SDS011;34316;51.514;-0.178;2023-05-07T00:51:43;15.02;;;9.52;;
48524;SDS011;34316;51.514;-0.178;2023-05-07T00:53:45;12.98;;;10.30;;
48524;SDS011;34316;51.514;-0.178;2023-05-07T00:55:47;11.43;;;10.23;;
48524;SDS011;34316;51.514;-0.178;2023-05-07T00:57:49;13.85;;;10.25;;
48524;SDS011;34316;51.514;-0.178;2023-05-07T00:59:51;13.07;;;10.07;;
48524;SDS011;34316;51.514;-0.178;2023-05-07T01:01:53;13.90;;;10.48;;
48524;SDS011;34316;51.514;-0.178;2023-05-07T01:03:55;15.88;;;11.43;;
48524;SDS011;34316;51.514;-0.178;2023-05-07T01:05:58;14.13;;;11.65;;
48524;SDS011;34316;51.514;-0.178;2023-05-07T01:08:01;14.98;;;11.18;;
48524;SDS011;34316;51.514;-0.178;2023-05-07T01:10:04;15.10;;;11.27;;
48524;SDS011;34316;51.514;-0.178;2023-05-07T01:12:06;15.90;;;13.13;;
48524;SDS011;34316;51.514;-0.178;2023-05-07T01:14:08;17.42;;;14.00;;
48524;SDS011;34316;51.514;-0.178;2023-05-07T01:16:10;15.98;;;13.02;;
48524;SDS011;34316;51.514;-0.178;2023-05-07T01:18:12;13.90;;;12.50;;
48524;SDS011;34316;51.514;-0.178;2023-05-07T01:20:14;15.55;;;13.00;;
48524;SDS011;34316;51.514;-0.178;2023-05-07T01:22:17;16.67;;;12.48;;
48524;SDS011;34316;51.514;-0.178;2023-05-07T01:24:48;14.25;;;12.13;;
48524;SDS011;34316;51.514;-0.178;2023-05-07T01:26:50;15.50;;;11.50;;
48524;SDS011;34316;51.514;-0.178;2023-05-07T01:28:51;15.82;;;12.63;;
48524;SDS011;34316;51.514;-0.178;2023-05-07T01:30:54;16.75;;;13.57;;
48524;SDS011;34316;51.514;-0.178;2023-05-07T01:33:01;14.52;;;11.77;;
48524;SDS011;34316;51.514;-0.178;2023-05-07T01:35:06;16.50;;;11.43;;
48524;SDS011;34316;51.514;-0.178;2023-05-07T01:37:09;16.10;;;11.43;;
48524;SDS011;34316;51.514;-0.178;2023-05-07T01:39:10;15.05;;;11.85;;
48524;SDS011;34316;51.514;-0.178;2023-05-07T01:41:12;16.67;;;11.73;;
48524;SDS011;34316;51.514;-0.178;2023-05-07T01:43:14;17.63;;;12.32;;
48524;SDS011;34316;51.514;-0.178;2023-05-07T01:45:16;13.63;;;11.13;;
48524;SDS011;34316;51.514;-0.178;2023-05-07T01:47:18;19.83;;;12.27;;
48524;SDS011;34316;51.514;-0.178;2023-05-07T01:49:20;12.40;;;10.48;;
48524;SDS011;34316;51.514;-0.178;2023-05-07T01:51:22;15.40;;;10.00;;
48524;SDS011;34316;51.514;-0.178;2023-05-07T01:53:24;16.52;;;9.98;;
48524;SDS011;34316;51.514;-0.178;2023-05-07T01:55:28;13.32;;;10.48;;
48524;SDS011;34316;51.514;-0.178;2023-05-07T01:57:30;14.15;;;10.20;;
48524;SDS011;34316;51.514;-0.178;2023-05-07T01:59:32;12.73;;;9.80;;
48524;SDS011;34316;51.514;-0.178;2023-05-07T02:01:33;15.45;;;10.00;;
48524;SDS011;34316;51.514;-0.178;2023-05-07T02:03:35;11.63;;;9.23;;
48524;SDS011;34316;51.514;-0.178;2023-05-07T02:05:38;13.25;;;9.45;;
48524;SDS011;34316;51.514;-0.178;2023-05-07T02:07:39;11.65;;;8.93;;
48524;SDS011;34316;51.514;-0.178;2023-05-07T02:09:41;13.38;;;9.38;;
48524;SDS011;34316;51.514;-0.178;2023-05-07T02:11:42;11.82;;;9.02;;
48524;SDS011;34316;51.514;-0.178;2023-05-07T02:13:44;11.18;;;8.85;;
48524;SDS011;34316;51.514;-0.178;2023-05-07T02:15:46;11.77;;;8.77;;
48524;SDS011;34316;51.514;-0.178;2023-05-07T02:18:07;12.00;;;9.75;;
48524;SDS011;34316;51.514;-0.178;2023-05-07T02:20:10;12.23;;;9.32;;
48524;SDS011;34316;51.514;-0.178;2023-05-07T02:22:14;11.93;;;9.18;;
48524;SDS011;34316;51.514;-0.178;2023-05-07T02:24:16;11.75;;;8.95;;
48524;SDS011;34316;51.514;-0.178;2023-05-07T02:26:18;11.77;;;9.38;;
48524;SDS011;34316;51.514;-0.178;2023-05-07T02:28:20;11.23;;;9.45;;
48524;SDS011;34316;51.514;-0.178;2023-05-07T02:30:21;12.90;;;8.43;;
48524;SDS011;34316;51.514;-0.178;2023-05-07T02:32:23;12.45;;;8.82;;
48524;SDS011;34316;51.514;-0.178;2023-05-07T02:34:25;13.25;;;9.18;;
48524;SDS011;34316;51.514;-0.178;2023-05-07T02:36:26;14.80;;;8.98;;
48524;SDS011;34316;51.514;-0.178;2023-05-07T02:38:28;12.73;;;8.85;;
48524;SDS011;34316;51.514;-0.178;2023-05-07T02:40:29;14.55;;;9.45;;
48524;SDS011;34316;51.514;-0.178;2023-05-07T02:42:35;11.52;;;9.07;;
48524;SDS011;34316;51.514;-0.178;2023-05-07T02:44:36;14.07;;;9.07;;
48524;SDS011;34316;51.514;-0.178;2023-05-07T02:46:38;12.73;;;9.52;;
48524;SDS011;34316;51.514;-0.178;2023-05-07T02:48:40;14.38;;;10.48;;
48524;SDS011;34316;51.514;-0.178;2023-05-07T02:50:41;15.15;;;10.45;;
48524;SDS011;34316;51.514;-0.178;2023-05-07T02:52:43;13.23;;;10.10;;
48524;SDS011;34316;51.514;-0.178;2023-05-07T02:54:44;13.88;;;10.40;;
48524;SDS011;34316;51.514;-0.178;2023-05-07T02:56:46;17.50;;;11.30;;
48524;SDS011;34316;51.514;-0.178;2023-05-07T02:58:48;14.65;;;11.30;;
48524;SDS011;34316;51.514;-0.178;2023-05-07T03:00:49;16.70;;;10.38;;
48524;SDS011;34316;51.514;-0.178;2023-05-07T03:02:51;18.15;;;11.95;;
48524;SDS011;34316;51.514;-0.178;2023-05-07T03:04:53;11.80;;;10.60;;
48524;SDS011;34316;51.514;-0.178;2023-05-07T03:06:57;14.43;;;11.02;;
48524;SDS011;34316;51.514;-0.178;2023-05-07T03:08:59;13.30;;;11.45;;
48524;SDS011;34316;51.514;-0.178;2023-05-07T03:11:00;16.30;;;11.60;;
48524;SDS011;34316;51.514;-0.178;2023-05-07T03:13:02;15.88;;;11.18;;
48524;SDS011;34316;51.514;-0.178;2023-05-07T03:17:24;14.68;;;11.20;;
48524;SDS011;34316;51.514;-0.178;2023-05-07T03:19:26;16.73;;;11.43;;
48524;SDS011;34316;51.514;-0.178;2023-05-07T03:21:28;14.43;;;10.50;;
48524;SDS011;34316;51.514;-0.178;2023-05-07T03:23:29;13.27;;;11.10;;
48524;SDS011;34316;51.514;-0.178;2023-05-07T03:25:31;14.88;;;10.63;;
48524;SDS011;34316;51.514;-0.178;2023-05-07T03:27:33;17.55;;;10.40;;
48524;SDS011;34316;51.514;-0.178;2023-05-07T03:29:35;12.57;;;10.02;;
48524;SDS011;34316;51.514;-0.178;2023-05-07T03:31:36;12.13;;;10.18;;
48524;SDS011;34316;51.514;-0.178;2023-05-07T03:33:39;13.65;;;10.35;;
48524;SDS011;34316;51.514;-0.178;2023-05-07T03:35:52;14.23;;;10.00;;
48524;SDS011;34316;51.514;-0.178;2023-05-07T03:37:53;13.73;;;10.15;;
48524;SDS011;34316;51.514;-0.178;2023-05-07T03:39:55;12.32;;;10.02;;
48524;SDS011;34316;51.514;-0.178;2023-05-07T03:41:57;16.75;;;10.02;;
48524;SDS011;34316;51.514;-0.178;2023-05-07T03:43:59;15.85;;;10.52;;
48524;SDS011;34316;51.514;-0.178;2023-05-07T03:46:00;15.13;;;9.45;;
48524;SDS011;34316;51.514;-0.178;2023-05-07T03:48:02;17.75;;;9.88;;
48524;SDS011;34316;51.514;-0.178;2023-05-07T03:50:04;14.50;;;10.57;;
48524;SDS011;34316;51.514;-0.178;2023-05-07T03:52:06;14.50;;;10.05;;
48524;SDS011;34316;51.514;-0.178;2023-05-07T03:54:08;11.82;;;9.68;;
48524;SDS011;34316;51.514;-0.178;2023-05-07T03:56:09;11.68;;;9.45;;
48524;SDS011;34316;51.514;-0.178;2023-05-07T03:58:11;11.57;;;9.27;;
48524;SDS011;34316;51.514;-0.178;2023-05-07T04:00:13;13.63;;;9.95;;
48524;SDS011;34316;51.514;-0.178;2023-05-07T04:02:15;15.80;;;10.30;;
48524;SDS011;34316;51.514;-0.178;2023-05-07T04:04:17;13.23;;;9.85;;
48524;SDS011;34316;51.514;-0.178;2023-05-07T04:06:19;13.05;;;9.80;;
48524;SDS011;34316;51.514;-0.178;2023-05-07T04:08:20;11.18;;;9.45;;
48524;SDS011;34316;51.514;-0.178;2023-05-07T04:10:22;13.82;;;9.00;;
48524;SDS011;34316;51.514;-0.178;2023-05-07T04:12:23;13.57;;;9.85;;
48524;SDS011;34316;51.514;-0.178;2023-05-07T04:14:25;11.40;;;8.98;;
48524;SDS011;34316;51.514;-0.178;2023-05-07T04:16:27;14.40;;;9.80;;
48524;SDS011;34316;51.514;-0.178;2023-05-07T04:18:29;11.52;;;9.23;;
48524;SDS011;34316;51.514;-0.178;2023-05-07T04:20:30;12.27;;;9.38;;
48524;SDS011;34316;51.514;-0.178;2023-05-07T04:22:35;14.18;;;9.48;;
48524;SDS011;34316;51.514;-0.178;2023-05-07T04:24:37;11.82;;;9.15;;
48524;SDS011;34316;51.514;-0.178;2023-05-07T04:26:39;11.80;;;9.80;;
48524;SDS011;34316;51.514;-0.178;2023-05-07T04:28:41;11.02;;;9.57;;
48524;SDS011;34316;51.514;-0.178;2023-05-07T04:30:43;11.13;;;9.43;;
48524;SDS011;34316;51.514;-0.178;2023-05-07T04:32:45;10.82;;;9.25;;
48524;SDS011;34316;51.514;-0.178;2023-05-07T04:34:46;15.27;;;10.38;;
48524;SDS011;34316;51.514;-0.178;2023-05-07T04:36:48;11.60;;;9.65;;
48524;SDS011;34316;51.514;-0.178;2023-05-07T04:38:50;11.98;;;9.10;;
48524;SDS011;34316;51.514;-0.178;2023-05-07T04:40:51;16.27;;;9.50;;
48524;SDS011;34316;51.514;-0.178;2023-05-07T04:42:53;14.77;;;9.63;;
48524;SDS011;34316;51.514;-0.178;2023-05-07T04:44:54;13.57;;;9.80;;
48524;SDS011;34316;51.514;-0.178;2023-05-07T04:46:56;13.68;;;9.95;;
48524;SDS011;34316;51.514;-0.178;2023-05-07T04:48:58;14.73;;;9.90;;
48524;SDS011;34316;51.514;-0.178;2023-05-07T04:51:00;14.70;;;9.65;;
48524;SDS011;34316;51.514;-0.178;2023-05-07T04:53:02;14.30;;;9.65;;
48524;SDS011;34316;51.514;-0.178;2023-05-07T04:55:04;17.10;;;9.57;;
48524;SDS011;34316;51.514;-0.178;2023-05-07T04:57:06;11.52;;;9.27;;
48524;SDS011;34316;51.514;-0.178;2023-05-07T04:59:07;10.80;;;9.55;;
48524;SDS011;34316;51.514;-0.178;2023-05-07T05:01:09;11.95;;;9.65;;
48524;SDS011;34316;51.514;-0.178;2023-05-07T05:03:11;11.35;;;8.88;;
48524;SDS011;34316;51.514;-0.178;2023-05-07T05:05:13;11.15;;;9.35;;
48524;SDS011;34316;51.514;-0.178;2023-05-07T05:07:15;12.50;;;9.77;;
48524;SDS011;34316;51.514;-0.178;2023-05-07T05:09:16;11.38;;;9.07;;
48524;SDS011;34316;51.514;-0.178;2023-05-07T05:11:18;14.43;;;9.57;;
48524;SDS011;34316;51.514;-0.178;2023-05-07T05:13:20;16.55;;;12.43;;
48524;SDS011;34316;51.514;-0.178;2023-05-07T05:15:22;13.77;;;10.07;;
48524;SDS011;34316;51.514;-0.178;2023-05-07T05:17:24;12.93;;;9.68;;
48524;SDS011;34316;51.514;-0.178;2023-05-07T05:19:26;12.52;;;9.73;;
48524;SDS011;34316;51.514;-0.178;2023-05-07T05:21:27;14.63;;;10.27;;
48524;SDS011;34316;51.514;-0.178;2023-05-07T05:23:29;12.23;;;8.48;;
48524;SDS011;34316;51.514;-0.178;2023-05-07T05:25:31;15.55;;;9.57;;
48524;SDS011;34316;51.514;-0.178;2023-05-07T05:27:33;13.48;;;9.70;;
48524;SDS011;34316;51.514;-0.178;2023-05-07T05:29:35;12.65;;;9.40;;
48524;SDS011;34316;51.514;-0.178;2023-05-07T05:31:36;11.70;;;9.55;;
48524;SDS011;34316;51.514;-0.178;2023-05-07T05:33:38;11.90;;;9.00;;
48524;SDS011;34316;51.514;-0.178;2023-05-07T05:35:40;15.50;;;9.80;;
48524;SDS011;34316;51.514;-0.178;2023-05-07T05:37:41;13.13;;;9.07;;
48524;SDS011;34316;51.514;-0.178;2023-05-07T05:39:43;12.10;;;9.73;;
48524;SDS011;34316;51.514;-0.178;2023-05-07T05:41:45;12.32;;;9.32;;
48524;SDS011;34316;51.514;-0.178;2023-05-07T05:43:47;12.35;;;8.63;;
48524;SDS011;34316;51.514;-0.178;2023-05-07T05:45:48;11.20;;;9.02;;
48524;SDS011;34316;51.514;-0.178;2023-05-07T05:47:50;16.33;;;9.38;;
48524;SDS011;34316;51.514;-0.178;2023-05-07T05:49:52;12.60;;;9.50;;
48524;SDS011;34316;51.514;-0.178;2023-05-07T05:51:53;13.20;;;9.68;;
48524;SDS011;34316;51.514;-0.178;2023-05-07T05:53:55;14.32;;;9.10;;
48524;SDS011;34316;51.514;-0.178;2023-05-07T05:55:56;14.65;;;9.85;;
48524;SDS011;34316;51.514;-0.178;2023-05-07T05:57:59;11.40;;;8.90;;
48524;SDS011;34316;51.514;-0.178;2023-05-07T06:00:01;12.77;;;10.35;;
48524;SDS011;34316;51.514;-0.178;2023-05-07T06:02:03;10.98;;;9.50;;
48524;SDS011;34316;51.514;-0.178;2023-05-07T06:04:05;13.57;;;9.27;;
48524;SDS011;34316;51.514;-0.178;2023-05-07T06:06:07;12.65;;;9.55;;
48524;SDS011;34316;51.514;-0.178;2023-05-07T06:08:08;11.75;;;9.18;;
48524;SDS011;34316;51.514;-0.178;2023-05-07T06:10:10;12.80;;;9.68;;
48524;SDS011;34316;51.514;-0.178;2023-05-07T06:12:12;12.70;;;9.13;;
48524;SDS011;34316;51.514;-0.178;2023-05-07T06:14:14;11.07;;;8.90;;
48524;SDS011;34316;51.514;-0.178;2023-05-07T06:16:34;16.48;;;9.02;;
48524;SDS011;34316;51.514;-0.178;2023-05-07T06:18:36;11.27;;;9.25;;
48524;SDS011;34316;51.514;-0.178;2023-05-07T06:20:38;10.63;;;9.07;;
48524;SDS011;34316;51.514;-0.178;2023-05-07T06:22:40;17.40;;;10.18;;
48524;SDS011;34316;51.514;-0.178;2023-05-07T06:24:41;10.80;;;9.23;;
48524;SDS011;34316;51.514;-0.178;2023-05-07T06:26:43;9.85;;;8.32;;
48524;SDS011;34316;51.514;-0.178;2023-05-07T06:28:44;11.63;;;9.07;;
48524;SDS011;34316;51.514;-0.178;2023-05-07T06:30:46;9.95;;;7.90;;
48524;SDS011;34316;51.514;-0.178;2023-05-07T06:32:48;9.80;;;7.97;;
48524;SDS011;34316;51.514;-0.178;2023-05-07T06:34:50;14.57;;;8.85;;
48524;SDS011;34316;51.514;-0.178;2023-05-07T06:36:51;10.60;;;8.27;;
48524;SDS011;34316;51.514;-0.178;2023-05-07T06:38:53;12.55;;;8.45;;
48524;SDS011;34316;51.514;-0.178;2023-05-07T06:40:54;10.00;;;8.38;;
48524;SDS011;34316;51.514;-0.178;2023-05-07T06:42:58;13.30;;;9.02;;
48524;SDS011;34316;51.514;-0.178;2023-05-07T06:44:59;11.20;;;8.25;;
48524;SDS011;34316;51.514;-0.178;2023-05-07T06:47:01;15.30;;;8.35;;
48524;SDS011;34316;51.514;-0.178;2023-05-07T06:49:03;11.52;;;7.85;;
48524;SDS011;34316;51.514;-0.178;2023-05-07T06:51:04;10.55;;;7.80;;
48524;SDS011;34316;51.514;-0.178;2023-05-07T06:53:06;13.90;;;9.02;;
48524;SDS011;34316;51.514;-0.178;2023-05-07T06:55:08;11.38;;;8.25;;
48524;SDS011;34316;51.514;-0.178;2023-05-07T06:57:10;10.43;;;8.25;;
48524;SDS011;34316;51.514;-0.178;2023-05-07T06:59:11;10.27;;;7.68;;
48524;SDS011;34316;51.514;-0.178;2023-05-07T07:01:13;12.43;;;8.40;;
48524;SDS011;34316;51.514;-0.178;2023-05-07T07:03:15;12.73;;;8.45;;
48524;SDS011;34316;51.514;-0.178;2023-05-07T07:05:16;10.32;;;7.22;;
48524;SDS011;34316;51.514;-0.178;2023-05-07T07:07:18;13.07;;;7.63;;
48524;SDS011;34316;51.514;-0.178;2023-05-07T07:09:20;9.75;;;7.53;;
48524;SDS011;34316;51.514;-0.178;2023-05-07T07:11:24;11.18;;;8.43;;
48524;SDS011;34316;51.514;-0.178;2023-05-07T07:13:26;12.20;;;7.97;;
48524;SDS011;34316;51.514;-0.178;2023-05-07T07:15:27;9.60;;;7.15;;
48524;SDS011;34316;51.514;-0.178;2023-05-07T07:17:29;10.25;;;7.00;;
48524;SDS011;34316;51.514;-0.178;2023-05-07T07:19:31;9.88;;;7.93;;
48524;SDS011;34316;51.514;-0.178;2023-05-07T07:21:32;11.50;;;7.57;;
48524;SDS011;34316;51.514;-0.178;2023-05-07T07:23:34;11.57;;;7.70;;
48524;SDS011;34316;51.514;-0.178;2023-05-07T07:25:35;12.88;;;7.25;;
48524;SDS011;34316;51.514;-0.178;2023-05-07T07:27:37;11.45;;;7.38;;
48524;SDS011;34316;51.514;-0.178;2023-05-07T07:29:39;10.32;;;7.65;;
48524;SDS011;34316;51.514;-0.178;2023-05-07T07:31:40;8.52;;;7.63;;
48524;SDS011;34316;51.514;-0.178;2023-05-07T07:33:42;10.07;;;7.22;;
48524;SDS011;34316;51.514;-0.178;2023-05-07T07:35:44;8.90;;;6.70;;
48524;SDS011;34316;51.514;-0.178;2023-05-07T07:37:46;15.60;;;5.95;;
48524;SDS011;34316;51.514;-0.178;2023-05-07T07:39:51;10.90;;;7.22;;
48524;SDS011;34316;51.514;-0.178;2023-05-07T07:41:52;11.60;;;7.10;;
48524;SDS011;34316;51.514;-0.178;2023-05-07T07:43:55;10.10;;;6.60;;
48524;SDS011;34316;51.514;-0.178;2023-05-07T07:45:56;9.50;;;6.53;;
48524;SDS011;34316;51.514;-0.178;2023-05-07T07:47:58;10.15;;;6.88;;
48524;SDS011;34316;51.514;-0.178;2023-05-07T07:50:00;8.75;;;6.88;;
48524;SDS011;34316;51.514;-0.178;2023-05-07T07:52:01;9.63;;;6.63;;
48524;SDS011;34316;51.514;-0.178;2023-05-07T07:54:03;8.98;;;6.78;;
48524;SDS011;34316;51.514;-0.178;2023-05-07T07:56:05;7.63;;;6.85;;
48524;SDS011;34316;51.514;-0.178;2023-05-07T07:58:06;13.13;;;7.40;;
48524;SDS011;34316;51.514;-0.178;2023-05-07T08:00:08;8.43;;;7.15;;
48524;SDS011;34316;51.514;-0.178;2023-05-07T08:02:11;12.45;;;7.80;;
48524;SDS011;34316;51.514;-0.178;2023-05-07T08:04:12;9.10;;;7.30;;
48524;SDS011;34316;51.514;-0.178;2023-05-07T08:06:14;10.15;;;7.95;;
48524;SDS011;34316;51.514;-0.178;2023-05-07T08:08:16;9.57;;;7.35;;
48524;SDS011;34316;51.514;-0.178;2023-05-07T08:10:18;9.23;;;6.70;;
48524;SDS011;34316;51.514;-0.178;2023-05-07T08:12:23;10.98;;;7.00;;
48524;SDS011;34316;51.514;-0.178;2023-05-07T08:14:25;11.70;;;7.13;;
48524;SDS011;34316;51.514;-0.178;2023-05-07T08:16:26;8.35;;;6.28;;
48524;SDS011;34316;51.514;-0.178;2023-05-07T08:18:31;7.80;;;6.47;;
48524;SDS011;34316;51.514;-0.178;2023-05-07T08:20:33;10.48;;;6.38;;
48524;SDS011;34316;51.514;-0.178;2023-05-07T08:22:35;9.60;;;6.85;;
48524;SDS011;34316;51.514;-0.178;2023-05-07T08:24:37;11.23;;;7.50;;
48524;SDS011;34316;51.514;-0.178;2023-05-07T08:26:38;8.77;;;7.70;;
48524;SDS011;34316;51.514;-0.178;2023-05-07T08:28:40;10.05;;;7.05;;
48524;SDS011;34316;51.514;-0.178;2023-05-07T08:30:42;12.32;;;6.65;;
48524;SDS011;34316;51.514;-0.178;2023-05-07T08:32:44;11.60;;;6.35;;
48524;SDS011;34316;51.514;-0.178;2023-05-07T08:34:45;9.02;;;6.63;;
48524;SDS011;34316;51.514;-0.178;2023-05-07T08:36:47;14.80;;;7.40;;
48524;SDS011;34316;51.514;-0.178;2023-05-07T08:38:49;11.88;;;7.90;;
48524;SDS011;34316;51.514;-0.178;2023-05-07T08:40:51;11.32;;;7.43;;
48524;SDS011;34316;51.514;-0.178;2023-05-07T08:42:53;9.48;;;7.32;;
48524;SDS011;34316;51.514;-0.178;2023-05-07T08:44:56;12.73;;;6.78;;
48524;SDS011;34316;51.514;-0.178;2023-05-07T08:46:58;9.57;;;6.18;;
48524;SDS011;34316;51.514;-0.178;2023-05-07T08:49:02;11.30;;;6.80;;
48524;SDS011;34316;51.514;-0.178;2023-05-07T08:51:03;7.80;;;6.63;;
48524;SDS011;34316;51.514;-0.178;2023-05-07T08:53:05;7.47;;;5.25;;
48524;SDS011;34316;51.514;-0.178;2023-05-07T08:55:07;8.00;;;5.30;;
48524;SDS011;34316;51.514;-0.178;2023-05-07T08:57:09;8.32;;;5.50;;
48524;SDS011;34316;51.514;-0.178;2023-05-07T08:59:11;9.77;;;6.70;;
48524;SDS011;34316;51.514;-0.178;2023-05-07T09:01:13;9.43;;;7.47;;
48524;SDS011;34316;51.514;-0.178;2023-05-07T09:03:15;11.30;;;6.20;;
48524;SDS011;34316;51.514;-0.178;2023-05-07T09:05:17;7.50;;;6.25;;
48524;SDS011;34316;51.514;-0.178;2023-05-07T09:07:20;8.35;;;6.47;;
48524;SDS011;34316;51.514;-0.178;2023-05-07T09:09:21;6.47;;;5.50;;
48524;SDS011;34316;51.514;-0.178;2023-05-07T09:11:23;8.45;;;5.60;;
48524;SDS011;34316;51.514;-0.178;2023-05-07T09:13:27;7.40;;;5.18;;
48524;SDS011;34316;51.514;-0.178;2023-05-07T09:15:28;12.82;;;6.00;;
48524;SDS011;34316;51.514;-0.178;2023-05-07T09:17:30;9.52;;;5.30;;
48524;SDS011;34316;51.514;-0.178;2023-05-07T09:19:32;7.90;;;6.00;;
48524;SDS011;34316;51.514;-0.178;2023-05-07T09:21:34;8.13;;;5.50;;
48524;SDS011;34316;51.514;-0.178;2023-05-07T09:23:36;7.45;;;5.53;;
48524;SDS011;34316;51.514;-0.178;2023-05-07T09:25:38;6.75;;;5.57;;
48524;SDS011;34316;51.514;-0.178;2023-05-07T09:27:41;10.32;;;5.43;;
48524;SDS011;34316;51.514;-0.178;2023-05-07T09:29:43;7.70;;;5.43;;
48524;SDS011;34316;51.514;-0.178;2023-05-07T09:31:45;7.75;;;5.50;;
48524;SDS011;34316;51.514;-0.178;2023-05-07T09:33:46;7.88;;;4.90;;
48524;SDS011;34316;51.514;-0.178;2023-05-07T09:35:50;9.65;;;4.80;;
48524;SDS011;34316;51.514;-0.178;2023-05-07T09:37:53;9.13;;;4.97;;
48524;SDS011;34316;51.514;-0.178;2023-05-07T09:39:55;8.82;;;5.03;;
48524;SDS011;34316;51.514;-0.178;2023-05-07T09:41:56;6.45;;;4.82;;
48524;SDS011;34316;51.514;-0.178;2023-05-07T09:43:59;7.03;;;4.32;;
48524;SDS011;34316;51.514;-0.178;2023-05-07T09:46:07;6.72;;;4.35;;
48524;SDS011;34316;51.514;-0.178;2023-05-07T09:48:11;6.53;;;4.47;;
48524;SDS011;34316;51.514;-0.178;2023-05-07T09:50:14;6.28;;;3.75;;
48524;SDS011;34316;51.514;-0.178;2023-05-07T09:52:17;6.30;;;4.60;;
48524;SDS011;34316;51.514;-0.178;2023-05-07T09:54:19;6.60;;;4.60;;
48524;SDS011;34316;51.514;-0.178;2023-05-07T09:56:21;7.10;;;4.70;;
48524;SDS011;34316;51.514;-0.178;2023-05-07T09:58:22;10.90;;;4.93;;
48524;SDS011;34316;51.514;-0.178;2023-05-07T10:00:25;7.82;;;4.30;;
48524;SDS011;34316;51.514;-0.178;2023-05-07T10:02:27;7.28;;;3.95;;
48524;SDS011;34316;51.514;-0.178;2023-05-07T10:04:31;12.60;;;4.38;;
48524;SDS011;34316;51.514;-0.178;2023-05-07T10:06:34;6.07;;;4.07;;
48524;SDS011;34316;51.514;-0.178;2023-05-07T10:10:38;7.22;;;4.57;;
48524;SDS011;34316;51.514;-0.178;2023-05-07T10:12:40;7.90;;;4.00;;
48524;SDS011;34316;51.514;-0.178;2023-05-07T10:14:43;8.18;;;4.43;;
48524;SDS011;34316;51.514;-0.178;2023-05-07T10:16:45;6.90;;;4.18;;
48524;SDS011;34316;51.514;-0.178;2023-05-07T10:18:47;7.07;;;4.60;;
48524;SDS011;34316;51.514;-0.178;2023-05-07T10:22:52;8.32;;;4.50;;
48524;SDS011;34316;51.514;-0.178;2023-05-07T10:24:55;8.82;;;4.20;;
48524;SDS011;34316;51.514;-0.178;2023-05-07T10:27:00;6.43;;;4.43;;
48524;SDS011;34316;51.514;-0.178;2023-05-07T10:29:05;6.18;;;4.28;;
48524;SDS011;34316;51.514;-0.178;2023-05-07T10:33:54;6.03;;;3.90;;
48524;SDS011;34316;51.514;-0.178;2023-05-07T10:35:57;7.25;;;3.85;;
48524;SDS011;34316;51.514;-0.178;2023-05-07T10:38:00;4.40;;;3.65;;
48524;SDS011;34316;51.514;-0.178;2023-05-07T10:40:02;10.18;;;4.03;;
48524;SDS011;34316;51.514;-0.178;2023-05-07T10:42:07;4.75;;;3.88;;
48524;SDS011;34316;51.514;-0.178;2023-05-07T10:44:10;10.00;;;4.22;;
48524;SDS011;34316;51.514;-0.178;2023-05-07T10:46:14;5.20;;;3.85;;
48524;SDS011;34316;51.514;-0.178;2023-05-07T10:48:17;4.60;;;3.92;;
48524;SDS011;34316;51.514;-0.178;2023-05-07T10:50:30;8.15;;;3.90;;
48524;SDS011;34316;51.514;-0.178;2023-05-07T10:52:31;7.13;;;4.45;;
48524;SDS011;34316;51.514;-0.178;2023-05-07T10:54:33;6.57;;;4.18;;
48524;SDS011;34316;51.514;-0.178;2023-05-07T10:56:41;5.13;;;4.00;;
48524;SDS011;34316;51.514;-0.178;2023-05-07T10:58:48;5.22;;;3.95;;
48524;SDS011;34316;51.514;-0.178;2023-05-07T11:00:50;5.70;;;3.78;;
48524;SDS011;34316;51.514;-0.178;2023-05-07T11:05:20;5.15;;;3.63;;
48524;SDS011;34316;51.514;-0.178;2023-05-07T11:07:28;6.18;;;3.80;;
48524;SDS011;34316;51.514;-0.178;2023-05-07T11:11:54;6.60;;;4.10;;
48524;SDS011;34316;51.514;-0.178;2023-05-07T11:13:57;6.28;;;3.30;;
48524;SDS011;34316;51.514;-0.178;2023-05-07T11:15:58;6.03;;;3.40;;
48524;SDS011;34316;51.514;-0.178;2023-05-07T11:18:00;5.35;;;3.50;;
48524;SDS011;34316;51.514;-0.178;2023-05-07T11:20:02;5.55;;;3.40;;
48524;SDS011;34316;51.514;-0.178;2023-05-07T11:22:09;8.93;;;4.38;;
48524;SDS011;34316;51.514;-0.178;2023-05-07T11:24:38;7.28;;;4.00;;
48524;SDS011;34316;51.514;-0.178;2023-05-07T11:26:45;6.55;;;3.67;;
48524;SDS011;34316;51.514;-0.178;2023-05-07T11:28:48;6.63;;;3.92;;
48524;SDS011;34316;51.514;-0.178;2023-05-07T11:30:50;5.20;;;3.55;;
48524;SDS011;34316;51.514;-0.178;2023-05-07T11:32:51;8.07;;;3.85;;
48524;SDS011;34316;51.514;-0.178;2023-05-07T11:34:54;5.45;;;3.90;;
48524;SDS011;34316;51.514;-0.178;2023-05-07T11:36:56;6.82;;;3.63;;
48524;SDS011;34316;51.514;-0.178;2023-05-07T11:38:59;6.07;;;3.50;;
48524;SDS011;34316;51.514;-0.178;2023-05-07T11:41:02;5.38;;;3.40;;
48524;SDS011;34316;51.514;-0.178;2023-05-07T11:43:12;6.53;;;3.67;;
48524;SDS011;34316;51.514;-0.178;2023-05-07T11:45:14;5.35;;;3.40;;
48524;SDS011;34316;51.514;-0.178;2023-05-07T11:47:25;5.95;;;3.70;;
48524;SDS011;34316;51.514;-0.178;2023-05-07T11:49:27;4.38;;;3.30;;
48524;SDS011;34316;51.514;-0.178;2023-05-07T11:51:28;7.15;;;4.03;;
48524;SDS011;34316;51.514;-0.178;2023-05-07T11:53:40;7.28;;;3.55;;
48524;SDS011;34316;51.514;-0.178;2023-05-07T11:55:42;5.82;;;3.03;;
48524;SDS011;34316;51.514;-0.178;2023-05-07T11:57:44;4.80;;;3.08;;
48524;SDS011;34316;51.514;-0.178;2023-05-07T11:59:46;5.03;;;3.30;;
48524;SDS011;34316;51.514;-0.178;2023-05-07T12:01:50;8.30;;;3.70;;
48524;SDS011;34316;51.514;-0.178;2023-05-07T12:03:52;5.97;;;3.00;;
48524;SDS011;34316;51.514;-0.178;2023-05-07T12:05:54;5.03;;;3.70;;
48524;SDS011;34316;51.514;-0.178;2023-05-07T12:07:59;5.85;;;3.85;;
48524;SDS011;34316;51.514;-0.178;2023-05-07T12:10:04;4.75;;;3.50;;
48524;SDS011;34316;51.514;-0.178;2023-05-07T12:12:08;6.47;;;3.90;;